Time;durP1;ratioP1;P1;durP2;ratioP2;P2;SDS_P1;SDS_P2;PMS_P1;PMS_P2;Temp;Humidity;BMP_temperature;BMP_pressure;BME280_temperature;BME280_humidity;BME280_pressure;Samples;Min_cycle;Max_cycle;Signal;HPM_P1;HPM_P2
2021/09/28 05:01:07;;;;;;;1999.90;999.90;;;;;;;;;;5800677;23;20259;-76
2021/09/28 05:03:54;;;;;;;1999.90;999.90;;;;;;;;;;4973207;28;20219;-76
2021/09/28 05:06:38;;;;;;;1999.90;999.90;;;;;;;;;;4973409;28;20298;-76
2021/09/28 05:09:23;;;;;;;1999.90;999.90;;;;;;;;;;4972869;28;20259;-73
2021/09/28 05:12:08;;;;;;;1999.90;999.90;;;;;;;;;;4972965;28;20264;-74
2021/09/28 05:14:56;;;;;;;1999.90;999.90;;;;;;;;;;4972884;28;20732;-73
2021/09/28 05:17:42;;;;;;;1999.90;999.90;;;;;;;;;;4962589;28;20213;-75
2021/09/28 05:20:27;;;;;;;1999.90;999.90;;;;;;;;;;4954046;28;20452;-74
2021/09/28 05:23:12;;;;;;;1999.90;999.90;;;;;;;;;;4953015;28;20215;-74
2021/09/28 05:25:57;;;;;;;1999.90;999.90;;;;;;;;;;4953544;29;20209;-75
2021/09/28 05:28:43;;;;;;;1999.90;999.90;;;;;;;;;;4965605;28;20219;-74
2021/09/28 05:31:28;;;;;;;1999.90;999.90;;;;;;;;;;4969628;28;20580;-72
2021/09/28 05:34:15;;;;;;;1999.90;999.90;;;;;;;;;;4953402;28;20204;-72
2021/09/28 05:37:01;;;;;;;1999.90;999.90;;;;;;;;;;4965266;28;20606;-75
2021/09/28 05:39:46;;;;;;;1999.90;999.90;;;;;;;;;;4963351;28;20747;-75
2021/09/28 05:42:31;;;;;;;1999.90;999.90;;;;;;;;;;4971413;28;20298;-72
2021/09/28 05:45:16;;;;;;;1999.90;999.90;;;;;;;;;;4972410;28;20931;-72
2021/09/28 05:48:01;;;;;;;1999.90;999.90;;;;;;;;;;4971607;28;20952;-73
2021/09/28 05:50:48;;;;;;;1999.90;999.90;;;;;;;;;;4954812;28;20376;-72
2021/09/28 05:53:36;;;;;;;1999.90;999.90;;;;;;;;;;4960255;28;20295;-74
2021/09/28 05:56:21;;;;;;;1999.90;999.90;;;;;;;;;;4972176;28;20232;-72
2021/09/28 05:59:06;;;;;;;1999.90;999.90;;;;;;;;;;4971532;28;20224;-72
2021/09/28 06:01:51;;;;;;;1999.90;999.90;;;;;;;;;;4972234;28;20240;-72
2021/09/28 06:04:37;;;;;;;1999.90;999.90;;;;;;;;;;4972464;28;20574;-72
2021/09/28 06:07:23;;;;;;;1999.90;999.90;;;;;;;;;;4972327;28;20208;-73
2021/09/28 06:10:09;;;;;;;1999.90;999.90;;;;;;;;;;4962082;28;20205;-74
2021/09/28 06:12:54;;;;;;;1999.90;999.90;;;;;;;;;;4954698;28;20363;-74
2021/09/28 06:15:39;;;;;;;1999.90;999.90;;;;;;;;;;4964454;28;20215;-73
2021/09/28 06:18:24;;;;;;;1999.90;999.90;;;;;;;;;;4964142;28;20292;-73
2021/09/28 06:21:09;;;;;;;1999.90;999.90;;;;;;;;;;4957283;28;20228;-73
2021/09/28 06:23:55;;;;;;;1999.90;999.90;;;;;;;;;;4956769;28;20287;-73
2021/09/28 06:26:40;;;;;;;1999.90;999.90;;;;;;;;;;4971995;28;20204;-73
2021/09/28 06:29:25;;;;;;;1999.90;999.90;;;;;;;;;;4970679;28;20355;-73
2021/09/28 06:32:10;;;;;;;1999.90;999.90;;;;;;;;;;4967286;28;20898;-74
2021/09/28 06:34:55;;;;;;;1999.90;999.90;;;;;;;;;;4971671;28;20762;-73
2021/09/28 06:37:40;;;;;;;1999.90;999.90;;;;;;;;;;4971525;28;20204;-73
2021/09/28 06:40:26;;;;;;;1999.90;999.90;;;;;;;;;;4971806;28;20603;-73
2021/09/28 06:43:11;;;;;;;1999.90;999.90;;;;;;;;;;4971485;28;20210;-73
2021/09/28 06:45:56;;;;;;;1999.90;999.90;;;;;;;;;;4972025;28;20213;-73
2021/09/28 06:48:42;;;;;;;1999.90;999.90;;;;;;;;;;4971021;28;20246;-73
2021/09/28 06:51:26;;;;;;;1999.90;999.90;;;;;;;;;;4971753;28;20233;-73
2021/09/28 06:54:11;;;;;;;1999.90;999.90;;;;;;;;;;4971537;28;20285;-73
2021/09/28 06:56:57;;;;;;;1999.90;999.90;;;;;;;;;;4971749;28;20820;-73
2021/09/28 06:59:42;;;;;;;1999.90;999.90;;;;;;;;;;4971174;28;20631;-73
2021/09/28 07:02:28;;;;;;;1999.90;999.90;;;;;;;;;;4967832;28;20243;-74
2021/09/28 07:05:14;;;;;;;1999.90;999.90;;;;;;;;;;4970242;28;20200;-73
2021/09/28 07:07:59;;;;;;;1999.90;999.90;;;;;;;;;;4969549;28;20219;-73
2021/09/28 07:10:44;;;;;;;1999.90;999.90;;;;;;;;;;4970270;28;20236;-73
2021/09/28 07:13:31;;;;;;;1999.90;999.90;;;;;;;;;;4971061;28;20253;-72
2021/09/28 07:16:17;;;;;;;1999.90;999.90;;;;;;;;;;4962972;28;20222;-73
2021/09/28 07:19:02;;;;;;;1999.90;999.90;;;;;;;;;;4961865;28;20888;-72
2021/09/28 07:21:47;;;;;;;1999.90;999.90;;;;;;;;;;4960295;28;20239;-72
2021/09/28 07:24:32;;;;;;;1999.90;999.90;;;;;;;;;;4960893;28;20291;-72
2021/09/28 07:27:16;;;;;;;1999.90;999.90;;;;;;;;;;4960328;28;20300;-73
2021/09/28 07:30:03;;;;;;;1999.90;999.90;;;;;;;;;;4963857;28;20215;-73
2021/09/28 07:32:48;;;;;;;1999.90;999.90;;;;;;;;;;4953825;29;20224;-73
2021/09/28 07:35:33;;;;;;;1999.90;999.90;;;;;;;;;;4955457;28;20216;-73
2021/09/28 07:38:18;;;;;;;1999.90;999.90;;;;;;;;;;4955463;28;20237;-72
2021/09/28 07:41:03;;;;;;;1999.90;999.90;;;;;;;;;;4960763;28;20777;-73
2021/09/28 07:43:48;;;;;;;1999.90;999.90;;;;;;;;;;4971069;28;20479;-73
2021/09/28 07:46:34;;;;;;;1999.90;999.90;;;;;;;;;;4968354;28;20204;-72
2021/09/28 07:49:19;;;;;;;1999.90;999.90;;;;;;;;;;4971370;28;20208;-72
2021/09/28 07:52:04;;;;;;;1999.90;999.90;;;;;;;;;;4973163;28;20725;-73
2021/09/28 07:54:50;;;;;;;1999.90;999.90;;;;;;;;;;4973337;28;20216;-72
2021/09/28 07:57:35;;;;;;;1999.90;999.90;;;;;;;;;;4954949;28;20711;-73
2021/09/28 08:00:20;;;;;;;1999.90;999.90;;;;;;;;;;4956536;28;20216;-72
2021/09/28 08:03:07;;;;;;;1999.90;999.90;;;;;;;;;;4963963;28;20576;-72
2021/09/28 08:05:52;;;;;;;1999.90;999.90;;;;;;;;;;4966884;28;20245;-71
2021/09/28 08:08:37;;;;;;;1999.90;999.90;;;;;;;;;;4967353;28;20757;-71
2021/09/28 08:11:22;;;;;;;1999.90;999.90;;;;;;;;;;4955342;28;20244;-73
2021/09/28 08:14:07;;;;;;;1999.90;999.90;;;;;;;;;;4954867;29;20256;-72
2021/09/28 08:16:51;;;;;;;1999.90;999.90;;;;;;;;;;4954707;28;20357;-72
2021/09/28 08:19:40;;;;;;;1999.90;999.90;;;;;;;;;;4954097;29;20215;-72
2021/09/28 08:22:25;;;;;;;1999.90;999.90;;;;;;;;;;4967097;28;20235;-73
2021/09/28 08:25:12;;;;;;;1999.90;999.90;;;;;;;;;;4958930;28;20221;-74
2021/09/28 08:31:02;;;;;;;1999.90;999.90;;;;;;;;;;4963954;28;20516;-74
2021/09/28 08:33:47;;;;;;;1999.90;999.90;;;;;;;;;;4959455;28;20604;-74
2021/09/28 08:36:33;;;;;;;1999.90;999.90;;;;;;;;;;4969457;28;20239;-73
2021/09/28 08:39:18;;;;;;;1999.90;999.90;;;;;;;;;;4968948;28;20207;-73
2021/09/28 08:42:03;;;;;;;1999.90;999.90;;;;;;;;;;4972268;28;20740;-74
2021/09/28 08:44:48;;;;;;;1999.90;999.90;;;;;;;;;;4964410;28;20294;-72
2021/09/28 08:47:37;;;;;;;1999.90;999.90;;;;;;;;;;4967409;28;20219;-73
2021/09/28 08:50:22;;;;;;;1999.90;999.90;;;;;;;;;;4970553;28;20888;-72
2021/09/28 08:53:09;;;;;;;1999.90;999.90;;;;;;;;;;4958138;28;20274;-72
2021/09/28 08:55:54;;;;;;;1999.90;999.90;;;;;;;;;;4966883;28;20958;-72
2021/09/28 08:58:52;;;;;;;1999.90;999.90;;;;;;;;;;4971408;28;20290;-73
2021/09/28 09:01:37;;;;;;;1999.90;999.90;;;;;;;;;;4969028;28;20306;-72
2021/09/28 09:04:23;;;;;;;1999.90;999.90;;;;;;;;;;4969417;28;20350;-70
2021/09/28 09:07:22;;;;;;;1999.90;999.90;;;;;;;;;;4971890;28;20215;-72
2021/09/28 09:10:09;;;;;;;1999.90;999.90;;;;;;;;;;4959890;28;20595;-73
2021/09/28 09:12:55;;;;;;;1999.90;999.90;;;;;;;;;;4968108;28;20212;-71
2021/09/28 09:15:41;;;;;;;1999.90;999.90;;;;;;;;;;4960185;28;20231;-72
2021/09/28 09:18:26;;;;;;;1999.90;999.90;;;;;;;;;;4972367;28;20256;-72
2021/09/28 09:21:11;;;;;;;1999.90;999.90;;;;;;;;;;4960302;28;20734;-71
2021/09/28 09:23:56;;;;;;;1999.90;999.90;;;;;;;;;;4972957;28;20237;-72
2021/09/28 09:26:46;;;;;;;1999.90;999.90;;;;;;;;;;4972834;28;20207;-72
2021/09/28 09:29:31;;;;;;;1999.90;999.90;;;;;;;;;;4971165;28;20761;-72
2021/09/28 09:32:16;;;;;;;1999.90;999.90;;;;;;;;;;4970876;28;20469;-72
2021/09/28 09:35:01;;;;;;;1999.90;999.90;;;;;;;;;;4967839;28;20298;-72
2021/09/28 09:37:46;;;;;;;1999.90;999.90;;;;;;;;;;4971282;28;20724;-73
2021/09/28 09:40:32;;;;;;;1999.90;999.90;;;;;;;;;;4961150;28;20220;-72
2021/09/28 09:43:20;;;;;;;1999.90;999.90;;;;;;;;;;4960142;28;20415;-72
2021/09/28 09:46:13;;;;;;;1999.90;999.90;;;;;;;;;;4971757;28;20940;-74
2021/09/28 09:49:05;;;;;;;1999.90;999.90;;;;;;;;;;4971799;28;20291;-72
2021/09/28 09:51:51;;;;;;;1999.90;999.90;;;;;;;;;;4970643;28;20230;-73
2021/09/28 09:54:37;;;;;;;1999.90;999.90;;;;;;;;;;4971623;28;20355;-72
2021/09/28 09:57:23;;;;;;;1999.90;999.90;;;;;;;;;;4958501;28;20244;-72
2021/09/28 10:00:10;;;;;;;1999.90;999.90;;;;;;;;;;4959235;28;20235;-72
2021/09/28 10:02:55;;;;;;;1999.90;999.90;;;;;;;;;;4971102;28;20678;-72
2021/09/28 10:05:40;;;;;;;1999.90;999.90;;;;;;;;;;4971067;28;20212;-72
2021/09/28 10:08:25;;;;;;;1999.90;999.90;;;;;;;;;;4950889;29;20480;-72
2021/09/28 10:11:10;;;;;;;1999.90;999.90;;;;;;;;;;4964406;28;20232;-73
2021/09/28 10:13:57;;;;;;;1999.90;999.90;;;;;;;;;;4970853;28;20211;-73
2021/09/28 10:16:44;;;;;;;1999.90;999.90;;;;;;;;;;4970439;28;20371;-72
2021/09/28 10:19:40;;;;;;;1999.90;999.90;;;;;;;;;;4969850;28;20219;-72
2021/09/28 10:22:38;;;;;;;1999.90;999.90;;;;;;;;;;4970733;28;20585;-71
2021/09/28 10:25:24;;;;;;;1999.90;999.90;;;;;;;;;;4970311;28;20595;-71
2021/09/28 10:28:32;;;;;;;1999.90;999.90;;;;;;;;;;4966175;28;20224;-73
2021/09/28 10:31:30;;;;;;;1999.90;999.90;;;;;;;;;;4957388;28;20244;-71
2021/09/28 10:34:17;;;;;;;1999.90;999.90;;;;;;;;;;4969337;28;20303;-72
2021/09/28 10:37:02;;;;;;;1999.90;999.90;;;;;;;;;;4953461;28;20236;-72
2021/09/28 10:39:47;;;;;;;1999.90;999.90;;;;;;;;;;4951840;29;20398;-72
2021/09/28 10:42:48;;;;;;;1999.90;999.90;;;;;;;;;;4956233;28;20322;-73
2021/09/28 10:45:51;;;;;;;1999.90;999.90;;;;;;;;;;4955556;28;20288;-72
2021/09/28 10:48:37;;;;;;;1999.90;999.90;;;;;;;;;;4958149;28;20235;-74
2021/09/28 10:51:24;;;;;;;1999.90;999.90;;;;;;;;;;4951710;28;20279;-71
2021/09/28 10:54:08;;;;;;;1999.90;999.90;;;;;;;;;;4952186;28;20465;-72
2021/09/28 10:56:53;;;;;;;1999.90;999.90;;;;;;;;;;4955176;28;20228;-72
2021/09/28 10:59:58;;;;;;;1999.90;999.90;;;;;;;;;;4960180;28;20212;-71
2021/09/28 11:02:51;;;;;;;1999.90;999.90;;;;;;;;;;4975405;28;20600;-71
2021/09/28 11:05:38;;;;;;;1999.90;999.90;;;;;;;;;;4970317;28;20216;-72
2021/09/28 11:08:24;;;;;;;1999.90;999.90;;;;;;;;;;4955513;29;20204;-71
2021/09/28 11:11:10;;;;;;;1999.90;999.90;;;;;;;;;;4955806;28;20256;-72
2021/09/28 11:14:00;;;;;;;1999.90;999.90;;;;;;;;;;4959788;28;20730;-71
2021/09/28 11:16:50;;;;;;;1999.90;999.90;;;;;;;;;;4959144;28;20301;-71
2021/09/28 11:19:35;;;;;;;1999.90;999.90;;;;;;;;;;4953982;29;20420;-71
2021/09/28 11:22:22;;;;;;;1999.90;999.90;;;;;;;;;;4970376;28;20236;-71
2021/09/28 11:25:15;;;;;;;1999.90;999.90;;;;;;;;;;4965769;28;20215;-73
2021/09/28 11:28:01;;;;;;;1999.90;999.90;;;;;;;;;;4974530;28;20204;-73
2021/09/28 11:30:51;;;;;;;1999.90;999.90;;;;;;;;;;4961382;28;20893;-73
2021/09/28 11:33:37;;;;;;;1999.90;999.90;;;;;;;;;;4973706;28;20299;-73
2021/09/28 11:36:22;;;;;;;1999.90;999.90;;;;;;;;;;4972198;28;20278;-71
2021/09/28 11:39:09;;;;;;;1999.90;999.90;;;;;;;;;;4970549;28;20252;-70
2021/09/28 11:41:58;;;;;;;1999.90;999.90;;;;;;;;;;4968669;28;20236;-71
2021/09/28 11:44:44;;;;;;;1999.90;999.90;;;;;;;;;;4955506;28;20212;-71
2021/09/28 11:47:29;;;;;;;1999.90;999.90;;;;;;;;;;4958362;28;20207;-71
2021/09/28 11:50:14;;;;;;;1999.90;999.90;;;;;;;;;;4955965;28;20220;-71
2021/09/28 11:53:06;;;;;;;1999.90;999.90;;;;;;;;;;4960607;28;20706;-70
2021/09/28 11:55:51;;;;;;;1999.90;999.90;;;;;;;;;;4963703;28;20223;-72
2021/09/28 11:58:38;;;;;;;1999.90;999.90;;;;;;;;;;4954835;28;20217;-71
2021/09/28 12:01:24;;;;;;;1999.90;999.90;;;;;;;;;;4955117;29;20240;-71
2021/09/28 12:04:15;;;;;;;1999.90;999.90;;;;;;;;;;4954987;28;20291;-71
2021/09/28 12:07:03;;;;;;;1999.90;999.90;;;;;;;;;;4955199;28;20208;-72
2021/09/28 12:09:52;;;;;;;1999.90;999.90;;;;;;;;;;4954264;28;20268;-70
2021/09/28 12:12:39;;;;;;;1999.90;999.90;;;;;;;;;;4954907;29;20734;-70
2021/09/28 12:15:27;;;;;;;1999.90;999.90;;;;;;;;;;4974215;28;20681;-72
2021/09/28 12:18:17;;;;;;;1999.90;999.90;;;;;;;;;;4988018;28;20231;-71
2021/09/28 12:21:12;;;;;;;1999.90;999.90;;;;;;;;;;4957444;28;20739;-71
2021/09/28 12:24:11;;;;;;;1999.90;999.90;;;;;;;;;;4955078;28;20215;-70
2021/09/28 12:27:04;;;;;;;1999.90;999.90;;;;;;;;;;4954778;28;20209;-70
2021/09/28 12:29:50;;;;;;;1999.90;999.90;;;;;;;;;;4953929;28;20408;-69
2021/09/28 12:32:37;;;;;;;1999.90;999.90;;;;;;;;;;4957468;28;20485;-71
2021/09/28 12:35:29;;;;;;;1999.90;999.90;;;;;;;;;;4956749;28;20217;-70
2021/09/28 12:38:15;;;;;;;1999.90;999.90;;;;;;;;;;4959412;28;20234;-71
2021/09/28 12:41:03;;;;;;;1999.90;999.90;;;;;;;;;;4956793;28;20746;-70
2021/09/28 12:43:48;;;;;;;1999.90;999.90;;;;;;;;;;4954079;28;20264;-71
2021/09/28 12:46:33;;;;;;;1999.90;999.90;;;;;;;;;;4954099;28;20208;-71
2021/09/28 12:49:30;;;;;;;1999.90;999.90;;;;;;;;;;4972472;28;20314;-71
2021/09/28 12:52:14;;;;;;;1999.90;999.90;;;;;;;;;;4971530;28;20239;-70
2021/09/28 12:54:59;;;;;;;1999.90;999.90;;;;;;;;;;4967792;28;20208;-71
2021/09/28 12:57:44;;;;;;;1999.90;999.90;;;;;;;;;;4972609;28;20228;-70
2021/09/28 13:00:29;;;;;;;1999.90;999.90;;;;;;;;;;4973120;28;20196;-71
2021/09/28 13:03:15;;;;;;;1999.90;999.90;;;;;;;;;;4970776;28;20216;-71
2021/09/28 13:06:03;;;;;;;1999.90;999.90;;;;;;;;;;4959654;28;20216;-70
2021/09/28 13:08:48;;;;;;;1999.90;999.90;;;;;;;;;;4953530;28;20325;-71
2021/09/28 13:11:33;;;;;;;1999.90;999.90;;;;;;;;;;4954132;29;20671;-71
2021/09/28 13:14:18;;;;;;;1999.90;999.90;;;;;;;;;;4957169;28;20582;-68
2021/09/28 13:17:02;;;;;;;1999.90;999.90;;;;;;;;;;4961920;28;20442;-68
2021/09/28 13:19:48;;;;;;;1999.90;999.90;;;;;;;;;;4969739;28;20638;-70
2021/09/28 13:22:34;;;;;;;1999.90;999.90;;;;;;;;;;4964477;28;20316;-68
2021/09/28 13:25:19;;;;;;;1999.90;999.90;;;;;;;;;;4953077;29;20212;-68
2021/09/28 13:28:05;;;;;;;1999.90;999.90;;;;;;;;;;4952879;29;20209;-70
2021/09/28 13:30:50;;;;;;;1999.90;999.90;;;;;;;;;;4953407;29;20232;-69
2021/09/28 13:33:35;;;;;;;1999.90;999.90;;;;;;;;;;4954831;28;20309;-69
2021/09/28 13:36:20;;;;;;;1999.90;999.90;;;;;;;;;;4952566;28;20213;-68
2021/09/28 13:39:08;;;;;;;1999.90;999.90;;;;;;;;;;4966738;28;20329;-70
2021/09/28 13:41:53;;;;;;;1999.90;999.90;;;;;;;;;;4958967;28;20561;-69
2021/09/28 13:44:38;;;;;;;1999.90;999.90;;;;;;;;;;4953453;28;20220;-69
2021/09/28 13:47:23;;;;;;;1999.90;999.90;;;;;;;;;;4952953;28;20208;-69
2021/09/28 13:50:08;;;;;;;1999.90;999.90;;;;;;;;;;4952993;28;20212;-69
2021/09/28 13:52:53;;;;;;;1999.90;999.90;;;;;;;;;;4981013;28;20211;-70
2021/09/28 13:55:40;;;;;;;1999.90;999.90;;;;;;;;;;4954843;28;20390;-69
2021/09/28 13:58:24;;;;;;;1999.90;999.90;;;;;;;;;;4952029;29;20233;-69
2021/09/28 14:01:09;;;;;;;1999.90;999.90;;;;;;;;;;4953234;28;20327;-70
2021/09/28 14:03:54;;;;;;;1999.90;999.90;;;;;;;;;;4968841;28;20219;-69
2021/09/28 14:06:39;;;;;;;1999.90;999.90;;;;;;;;;;4966906;28;20291;-69
2021/09/28 14:09:25;;;;;;;1999.90;999.90;;;;;;;;;;4952011;28;20383;-69
2021/09/28 14:12:11;;;;;;;1999.90;999.90;;;;;;;;;;4952427;29;20316;-69
2021/09/28 14:14:56;;;;;;;1999.90;999.90;;;;;;;;;;4952808;28;20215;-73
2021/09/28 14:17:42;;;;;;;1999.90;999.90;;;;;;;;;;4952452;29;20589;-68
2021/09/28 14:20:27;;;;;;;1999.90;999.90;;;;;;;;;;4952287;28;20216;-68
2021/09/28 14:23:13;;;;;;;1999.90;999.90;;;;;;;;;;4952213;29;20303;-68
2021/09/28 14:25:58;;;;;;;1999.90;999.90;;;;;;;;;;4952693;29;20585;-68
2021/09/28 14:28:44;;;;;;;1999.90;999.90;;;;;;;;;;4949925;28;20958;-69
2021/09/28 14:31:29;;;;;;;1999.90;999.90;;;;;;;;;;4969905;28;20241;-69
2021/09/28 14:34:14;;;;;;;1999.90;999.90;;;;;;;;;;4971666;28;20336;-69
2021/09/28 14:36:59;;;;;;;1999.90;999.90;;;;;;;;;;4952044;28;20212;-69
2021/09/28 14:39:44;;;;;;;1999.90;999.90;;;;;;;;;;4951839;29;20362;-68
2021/09/28 14:42:29;;;;;;;1999.90;999.90;;;;;;;;;;4955530;28;20237;-69
2021/09/28 14:45:16;;;;;;;1999.90;999.90;;;;;;;;;;4953981;28;20321;-70
2021/09/28 14:48:03;;;;;;;1999.90;999.90;;;;;;;;;;4951653;28;20233;-69
2021/09/28 14:50:49;;;;;;;1999.90;999.90;;;;;;;;;;4952247;28;20235;-69
2021/09/28 14:53:34;;;;;;;1999.90;999.90;;;;;;;;;;4952168;29;20209;-69
2021/09/28 14:56:19;;;;;;;1999.90;999.90;;;;;;;;;;4955157;28;20693;-70
2021/09/28 14:59:05;;;;;;;1999.90;999.90;;;;;;;;;;4951201;28;20752;-69
2021/09/28 15:01:51;;;;;;;1999.90;999.90;;;;;;;;;;4953031;28;20738;-70
2021/09/28 15:04:36;;;;;;;1999.90;999.90;;;;;;;;;;4952475;28;20209;-70
2021/09/28 15:07:21;;;;;;;1999.90;999.90;;;;;;;;;;4953091;28;20742;-71
2021/09/28 15:10:06;;;;;;;1999.90;999.90;;;;;;;;;;4951230;28;20212;-71
2021/09/28 15:12:51;;;;;;;1999.90;999.90;;;;;;;;;;4952032;28;20216;-71
2021/09/28 15:15:36;;;;;;;1999.90;999.90;;;;;;;;;;4952550;29;20470;-71
2021/09/28 15:18:22;;;;;;;1999.90;999.90;;;;;;;;;;4951801;29;20213;-72
2021/09/28 15:21:07;;;;;;;1999.90;999.90;;;;;;;;;;4952185;29;20240;-73
2021/09/28 15:23:54;;;;;;;1999.90;999.90;;;;;;;;;;4953025;29;20318;-71
2021/09/28 15:26:39;;;;;;;1999.90;999.90;;;;;;;;;;4953314;28;20610;-72
2021/09/28 15:29:24;;;;;;;1999.90;999.90;;;;;;;;;;4955005;28;20265;-72
2021/09/28 15:32:16;;;;;;;1999.90;999.90;;;;;;;;;;4991076;28;20728;-72
2021/09/28 15:35:04;;;;;;;1999.90;999.90;;;;;;;;;;4990906;28;20207;-71
2021/09/28 15:37:49;;;;;;;1999.90;999.90;;;;;;;;;;4983124;28;20236;-70
2021/09/28 15:40:34;;;;;;;1999.90;999.90;;;;;;;;;;4969363;28;20582;-72
2021/09/28 15:43:19;;;;;;;1999.90;999.90;;;;;;;;;;4972767;28;20209;-72
2021/09/28 15:46:04;;;;;;;1999.90;999.90;;;;;;;;;;4964069;28;20217;-72
2021/09/28 15:48:49;;;;;;;1999.90;999.90;;;;;;;;;;4956341;28;20328;-71
2021/09/28 15:51:35;;;;;;;1999.90;999.90;;;;;;;;;;4956566;29;20224;-72
2021/09/28 15:54:20;;;;;;;1999.90;999.90;;;;;;;;;;4956592;29;20337;-72
2021/09/28 15:57:05;;;;;;;1999.90;999.90;;;;;;;;;;4958048;28;20216;-72
2021/09/28 15:59:50;;;;;;;1999.90;999.90;;;;;;;;;;4974466;28;20573;-71
2021/09/28 16:02:35;;;;;;;1999.90;999.90;;;;;;;;;;4960858;28;20955;-70
2021/09/28 16:05:19;;;;;;;1999.90;999.90;;;;;;;;;;4955184;29;20234;-70
2021/09/28 16:08:07;;;;;;;1999.90;999.90;;;;;;;;;;4955121;29;20660;-71
2021/09/28 16:10:54;;;;;;;1999.90;999.90;;;;;;;;;;4955593;28;20236;-71
2021/09/28 16:13:39;;;;;;;1999.90;999.90;;;;;;;;;;4955182;29;20588;-71
2021/09/28 16:16:24;;;;;;;1999.90;999.90;;;;;;;;;;4955093;29;20572;-72
2021/09/28 16:19:09;;;;;;;1999.90;999.90;;;;;;;;;;4954518;29;20247;-71
2021/09/28 16:21:55;;;;;;;1999.90;999.90;;;;;;;;;;4955238;28;20228;-71
2021/09/28 16:24:41;;;;;;;1999.90;999.90;;;;;;;;;;4955488;28;20208;-71
2021/09/28 16:27:26;;;;;;;1999.90;999.90;;;;;;;;;;4955765;29;20193;-72
2021/09/28 16:30:11;;;;;;;1999.90;999.90;;;;;;;;;;4955720;29;20206;-72
2021/09/28 16:32:56;;;;;;;1999.90;999.90;;;;;;;;;;4955328;28;20209;-72
2021/09/28 16:35:41;;;;;;;1999.90;999.90;;;;;;;;;;4955692;28;20365;-71
2021/09/28 16:38:26;;;;;;;1999.90;999.90;;;;;;;;;;4966384;28;20223;-70
2021/09/28 16:41:13;;;;;;;1999.90;999.90;;;;;;;;;;4974870;28;20424;-71
2021/09/28 16:43:58;;;;;;;1999.90;999.90;;;;;;;;;;4973690;28;20588;-72
2021/09/28 16:46:42;;;;;;;1999.90;999.90;;;;;;;;;;4974059;28;20209;-71
2021/09/28 16:49:27;;;;;;;1999.90;999.90;;;;;;;;;;4972927;28;20517;-71
2021/09/28 16:52:12;;;;;;;1999.90;999.90;;;;;;;;;;4975361;28;20230;-71
2021/09/28 16:54:57;;;;;;;1999.90;999.90;;;;;;;;;;4974928;28;20209;-72
2021/09/28 16:57:43;;;;;;;1999.90;999.90;;;;;;;;;;4973519;28;20212;-71
2021/09/28 17:00:28;;;;;;;1999.90;999.90;;;;;;;;;;4972445;28;20219;-70
2021/09/28 17:03:13;;;;;;;1999.90;999.90;;;;;;;;;;4958452;28;20214;-69
2021/09/28 17:05:58;;;;;;;1999.90;999.90;;;;;;;;;;4961391;28;20212;-69
2021/09/28 17:08:43;;;;;;;1999.90;999.90;;;;;;;;;;4979937;28;20204;-70
2021/09/28 17:11:28;;;;;;;1999.90;999.90;;;;;;;;;;4974147;28;20597;-70
2021/09/28 17:14:14;;;;;;;1999.90;999.90;;;;;;;;;;4971691;28;20961;-70
2021/09/28 17:16:59;;;;;;;1999.90;999.90;;;;;;;;;;4970647;28;20885;-70
2021/09/28 17:19:44;;;;;;;1999.90;999.90;;;;;;;;;;4972993;28;20757;-70
2021/09/28 17:22:29;;;;;;;1999.90;999.90;;;;;;;;;;4972465;28;20355;-70
2021/09/28 17:25:15;;;;;;;1999.90;999.90;;;;;;;;;;4954445;28;20588;-71
2021/09/28 17:27:59;;;;;;;1999.90;999.90;;;;;;;;;;4963127;28;20335;-70
2021/09/28 17:30:46;;;;;;;1999.90;999.90;;;;;;;;;;4973975;28;20223;-70
2021/09/28 17:33:31;;;;;;;1999.90;999.90;;;;;;;;;;4973036;28;20371;-71
2021/09/28 17:36:16;;;;;;;1999.90;999.90;;;;;;;;;;4972927;28;20662;-70
2021/09/28 17:39:01;;;;;;;1999.90;999.90;;;;;;;;;;4971351;28;20224;-70
2021/09/28 17:41:48;;;;;;;1999.90;999.90;;;;;;;;;;4971871;28;20607;-72
2021/09/28 17:44:33;;;;;;;1999.90;999.90;;;;;;;;;;4956127;28;20268;-71
2021/09/28 17:47:21;;;;;;;1999.90;999.90;;;;;;;;;;4961564;28;20227;-72
2021/09/28 17:50:07;;;;;;;1999.90;999.90;;;;;;;;;;4953671;29;20282;-70
2021/09/28 17:52:54;;;;;;;1999.90;999.90;;;;;;;;;;4969383;28;20219;-71
2021/09/28 17:56:14;;;;;;;1999.90;999.90;;;;;;;;;;4967211;28;20761;-72
2021/09/28 17:58:58;;;;;;;1999.90;999.90;;;;;;;;;;4972885;28;20212;-72
2021/09/28 18:01:44;;;;;;;1999.90;999.90;;;;;;;;;;4958891;28;20247;-71
2021/09/28 18:04:30;;;;;;;1999.90;999.90;;;;;;;;;;4969042;28;20582;-71
2021/09/28 18:07:17;;;;;;;1999.90;999.90;;;;;;;;;;4964463;28;20281;-70
2021/09/28 18:10:03;;;;;;;1999.90;999.90;;;;;;;;;;4952681;28;20224;-70
2021/09/28 18:12:48;;;;;;;1999.90;999.90;;;;;;;;;;4965600;28;20307;-71
2021/09/28 18:15:32;;;;;;;1999.90;999.90;;;;;;;;;;4956200;28;20213;-70
2021/09/28 18:18:17;;;;;;;1999.90;999.90;;;;;;;;;;4954711;28;20228;-70
2021/09/28 18:21:04;;;;;;;1999.90;999.90;;;;;;;;;;4971336;28;20224;-70
2021/09/28 18:23:49;;;;;;;1999.90;999.90;;;;;;;;;;4952648;28;20305;-70
2021/09/28 18:26:33;;;;;;;1999.90;999.90;;;;;;;;;;4956851;28;20913;-69
2021/09/28 18:29:22;;;;;;;1999.90;999.90;;;;;;;;;;4971482;28;20196;-70
2021/09/28 18:32:08;;;;;;;1999.90;999.90;;;;;;;;;;4971969;28;20586;-70
2021/09/28 18:34:53;;;;;;;1999.90;999.90;;;;;;;;;;4971859;28;20673;-71
2021/09/28 18:37:41;;;;;;;1999.90;999.90;;;;;;;;;;4958722;28;20702;-70
2021/09/28 18:40:30;;;;;;;1999.90;999.90;;;;;;;;;;4963987;28;20300;-69
2021/09/28 18:43:18;;;;;;;1999.90;999.90;;;;;;;;;;4962084;28;20211;-71
2021/09/28 18:46:04;;;;;;;1999.90;999.90;;;;;;;;;;4952515;29;20596;-71
2021/09/28 18:48:48;;;;;;;1999.90;999.90;;;;;;;;;;4952087;28;20221;-71
2021/09/28 18:51:33;;;;;;;1999.90;999.90;;;;;;;;;;4952034;28;20280;-69
2021/09/28 18:54:20;;;;;;;1999.90;999.90;;;;;;;;;;4952609;28;20219;-71
2021/09/28 18:57:06;;;;;;;1999.90;999.90;;;;;;;;;;4965977;28;20231;-71
2021/09/28 18:59:54;;;;;;;1999.90;999.90;;;;;;;;;;4970513;28;20216;-70
2021/09/28 19:02:41;;;;;;;1999.90;999.90;;;;;;;;;;4952657;28;20746;-70
2021/09/28 19:05:35;;;;;;;1999.90;999.90;;;;;;;;;;4953151;29;20196;-70
2021/09/28 19:08:26;;;;;;;1999.90;999.90;;;;;;;;;;4952067;28;20211;-71
2021/09/28 19:11:12;;;;;;;1999.90;999.90;;;;;;;;;;4952736;28;20336;-70
2021/09/28 19:13:57;;;;;;;1999.90;999.90;;;;;;;;;;4951972;28;20344;-69
2021/09/28 19:16:45;;;;;;;1999.90;999.90;;;;;;;;;;4955439;28;20214;-70
2021/09/28 19:19:30;;;;;;;1999.90;999.90;;;;;;;;;;4959500;28;20222;-69
2021/09/28 19:22:16;;;;;;;1999.90;999.90;;;;;;;;;;4955816;29;20235;-69
2021/09/28 19:25:01;;;;;;;1999.90;999.90;;;;;;;;;;4955832;28;20230;-69
2021/09/28 19:27:48;;;;;;;1999.90;999.90;;;;;;;;;;4955278;28;20446;-69
2021/09/28 19:30:33;;;;;;;1999.90;999.90;;;;;;;;;;4955665;28;20283;-69
2021/09/28 19:33:19;;;;;;;1999.90;999.90;;;;;;;;;;4954378;28;20227;-68
2021/09/28 19:36:04;;;;;;;1999.90;999.90;;;;;;;;;;4964733;28;20305;-69
2021/09/28 19:38:52;;;;;;;1999.90;999.90;;;;;;;;;;4969437;28;20231;-70
2021/09/28 19:41:38;;;;;;;1999.90;999.90;;;;;;;;;;4956917;28;20619;-70
2021/09/28 19:44:26;;;;;;;1999.90;999.90;;;;;;;;;;4958733;28;20224;-69
2021/09/28 19:47:11;;;;;;;1999.90;999.90;;;;;;;;;;4956442;28;20218;-69
2021/09/28 19:49:58;;;;;;;1999.90;999.90;;;;;;;;;;4957269;28;20264;-70
2021/09/28 19:52:45;;;;;;;1999.90;999.90;;;;;;;;;;4960559;28;20317;-70
2021/09/28 19:55:38;;;;;;;1999.90;999.90;;;;;;;;;;4954941;28;20215;-70
2021/09/28 19:58:33;;;;;;;1999.90;999.90;;;;;;;;;;4955992;28;20211;-70
2021/09/28 20:38:34;;;;;;;1999.90;999.90;;;;;;;;;;4973120;28;20590;-72
2021/09/28 20:41:21;;;;;;;1999.90;999.90;;;;;;;;;;4954604;28;20216;-72
2021/09/28 20:44:06;;;;;;;1999.90;999.90;;;;;;;;;;4954826;29;20210;-72
2021/09/28 20:46:51;;;;;;;1999.90;999.90;;;;;;;;;;4954481;29;20331;-72
2021/09/28 20:49:36;;;;;;;1999.90;999.90;;;;;;;;;;4952285;28;20398;-72
2021/09/28 20:52:22;;;;;;;1999.90;999.90;;;;;;;;;;4954420;29;20211;-72
2021/09/28 20:55:07;;;;;;;1999.90;999.90;;;;;;;;;;4954369;29;20692;-72
2021/09/28 20:57:52;;;;;;;1999.90;999.90;;;;;;;;;;4953511;29;20265;-72
2021/09/28 21:00:37;;;;;;;1999.90;999.90;;;;;;;;;;4953756;29;20309;-72
2021/09/28 21:03:22;;;;;;;1999.90;999.90;;;;;;;;;;4954039;29;20216;-72
2021/09/28 21:06:07;;;;;;;1999.90;999.90;;;;;;;;;;4954071;29;20212;-72
2021/09/28 21:08:53;;;;;;;1999.90;999.90;;;;;;;;;;4956216;28;20239;-70